Time,TemperatureF,DewpointF,PressureIn,WindDirection,WindDirectionDegrees,WindSpeedMPH,WindSpeedGustMPH,Humidity,HourlyPrecipIn,Conditions,Clouds,dailyrainin,SoftwareType,DateUTC
2013-09-10 00:01:00,59.8,58.1,29.67,ENE,64,0.0,0.0,94,0.01,,---,0.00,VWS V14.01,2013-09-10 06:01:00,
2013-09-10 00:03:00,59.8,58.1,29.72,South,175,0.0,0.0,94,0.01,,---,0.13,VWS V14.01,2013-09-10 06:03:00,
2013-09-10 00:04:00,59.8,58.4,29.67,ENE,64,0.0,0.0,95,0.01,,---,0.00,VWS V14.01,2013-09-10 06:04:00,
2013-09-10 00:05:00,59.8,58.4,29.67,ENE,64,0.0,0.0,95,0.01,,---,0.00,VWS V14.01,2013-09-10 06:05:00,
2013-09-10 00:09:00,59.8,58.1,29.72,South,175,0.0,0.0,94,0.01,,---,0.13,VWS V14.01,2013-09-10 06:09:00,
2013-09-10 00:15:00,59.8,58.1,29.70,South,175,0.0,0.0,94,0.01,,---,0.13,VWS V14.01,2013-09-10 06:15:00,
2013-09-10 00:17:00,59.6,57.9,29.71,ESE,116,0.0,2.0,94,0.01,,---,0.00,VWS V14.01,2013-09-10 06:17:00,
2013-09-10 00:19:00,59.5,57.8,29.71,ESE,123,0.0,0.0,94,0.01,,---,0.00,VWS V14.01,2013-09-10 06:19:00,
2013-09-10 00:20:00,59.8,58.1,29.70,South,175,0.0,0.0,94,0.01,,---,0.13,VWS V14.01,2013-09-10 06:20:00,
2013-09-10 00:21:00,59.5,57.8,29.71,ESE,123,0.0,0.0,94,0.01,,---,0.00,VWS V14.01,2013-09-10 06:21:00,
2013-09-10 00:22:00,59.5,57.8,29.71,ESE,123,0.0,0.0,94,0.01,,---,0.00,VWS V14.01,2013-09-10 06:22:00,
2013-09-10 00:26:00,59.8,58.1,29.69,South,175,0.0,0.0,94,0.01,,---,0.13,VWS V14.01,2013-09-10 06:26:00,
2013-09-10 00:29:00,59.5,57.8,29.71,ESE,123,0.0,0.0,94,0.01,,---,0.00,VWS V14.01,2013-09-10 06:29:00,
2013-09-10 00:31:00,59.8,58.1,29.69,South,175,0.0,0.0,94,0.01,,---,0.13,VWS V14.01,2013-09-10 06:31:00,
2013-09-10 00:36:00,59.3,57.6,29.71,ESE,123,0.0,0.0,94,0.01,,---,0.00,VWS V14.01,2013-09-10 06:36:00,
2013-09-10 00:37:00,59.9,58.2,29.69,South,175,0.0,0.0,94,0.01,,---,0.13,VWS V14.01,2013-09-10 06:37:00,
2013-09-10 00:40:00,59.3,57.6,29.71,ESE,123,0.0,0.0,94,0.01,,---,0.00,VWS V14.01,2013-09-10 06:40:00,
2013-09-10 00:42:00,59.8,58.1,29.67,ENE,62,0.0,0.0,94,0.00,,---,0.13,VWS V14.01,2013-09-10 06:42:00,
2013-09-10 00:47:00,59.8,58.1,29.67,ENE,64,0.0,0.0,94,0.01,,---,0.14,VWS V14.01,2013-09-10 06:47:00,
2013-09-10 00:51:00,59.2,57.8,29.72,ESE,123,0.0,0.0,95,0.00,,---,0.00,VWS V14.01,2013-09-10 06:51:00,
2013-09-10 00:52:00,59.8,58.1,29.67,ENE,64,0.0,0.0,94,0.01,,---,0.14,VWS V14.01,2013-09-10 06:52:00,
2013-09-10 00:58:00,59.8,58.1,29.67,ENE,64,0.0,0.0,94,0.01,,---,0.00,VWS V14.01,2013-09-10 06:58:00,
2013-09-10 01:03:00,59.8,58.1,29.67,ENE,64,0.0,0.0,94,0.01,,---,0.00,VWS V14.01,2013-09-10 07:03:00,
2013-09-10 01:05:00,59.2,57.8,29.71,ESE,123,0.0,0.0,95,0.00,,---,0.00,VWS V14.01,2013-09-10 07:05:00,
2013-09-10 01:08:00,59.6,57.9,29.67,ESE,116,1.0,3.0,94,0.01,,---,0.00,VWS V14.01,2013-09-10 07:08:00,
2013-09-10 01:14:00,59.5,57.8,29.71,ESE,123,0.0,0.0,94,0.01,,---,0.00,VWS V14.01,2013-09-10 07:14:00,
2013-09-10 01:19:00,59.5,57.8,29.71,ESE,123,0.0,0.0,94,0.01,,---,0.00,VWS V14.01,2013-09-10 07:19:00,
2013-09-10 01:24:00,58.7,57.0,29.71,ESE,123,0.0,0.0,94,0.00,,---,0.00,VWS V14.01,2013-09-10 07:24:00,
2013-09-10 01:26:00,59.5,57.8,29.71,ESE,123,0.0,0.0,94,0.01,,---,0.00,VWS V14.01,2013-09-10 07:26:00,
2013-09-10 01:28:00,58.6,56.9,29.71,ESE,123,0.0,0.0,94,0.00,,---,0.00,VWS V14.01,2013-09-10 07:28:00,
2013-09-10 01:30:00,58.6,56.9,29.71,ESE,123,0.0,0.0,94,0.00,,---,0.00,VWS V14.01,2013-09-10 07:30:00,
2013-09-10 01:31:00,59.3,57.6,29.71,ESE,123,0.0,0.0,94,0.01,,---,0.00,VWS V14.01,2013-09-10 07:31:00,
2013-09-10 01:36:00,58.4,56.7,29.71,ESE,123,0.0,0.0,94,0.00,,---,0.00,VWS V14.01,2013-09-10 07:36:00,
2013-09-10 01:37:00,59.3,57.6,29.71,ESE,123,0.0,0.0,94,0.01,,---,0.00,VWS V14.01,2013-09-10 07:37:00,
2013-09-10 01:44:00,59.2,57.8,29.72,ESE,123,0.0,0.0,95,0.00,,---,0.00,VWS V14.01,2013-09-10 07:44:00,
2013-09-10 01:45:00,58.4,57.0,29.72,ESE,123,0.0,0.0,95,0.00,,---,0.00,VWS V14.01,2013-09-10 07:45:00,
2013-09-10 01:49:00,59.2,57.8,29.72,ESE,123,0.0,0.0,95,0.00,,---,0.00,VWS V14.01,2013-09-10 07:49:00,
2013-09-10 01:54:00,59.2,57.8,29.72,ESE,123,0.0,0.0,95,0.00,,---,0.00,VWS V14.01,2013-09-10 07:54:00,
2013-09-10 02:00:00,59.2,57.8,29.71,ESE,123,0.0,0.0,95,0.00,,---,0.00,VWS V14.01,2013-09-10 08:00:00,
2013-09-10 02:06:00,59.0,57.3,29.71,ESE,123,0.0,0.0,94,0.00,,---,0.00,VWS V14.01,2013-09-10 08:06:00,
2013-09-10 02:11:00,58.9,57.2,29.71,ESE,123,0.0,0.0,94,0.00,,---,0.00,VWS V14.01,2013-09-10 08:11:00,
2013-09-10 02:16:00,58.9,57.2,29.71,ESE,123,0.0,0.0,94,0.00,,---,0.00,VWS V14.01,2013-09-10 08:16:00,
2013-09-10 02:21:00,58.7,57.0,29.71,ESE,123,0.0,0.0,94,0.00,,---,0.00,VWS V14.01,2013-09-10 08:21:00,
2013-09-10 02:27:00,58.6,56.9,29.71,ESE,123,0.0,0.0,94,0.00,,---,0.00,VWS V14.01,2013-09-10 08:27:00,
2013-09-10 02:33:00,58.4,56.7,29.71,ESE,123,0.0,0.0,94,0.00,,---,0.00,VWS V14.01,2013-09-10 08:33:00,
2013-09-10 02:38:00,58.4,56.7,29.71,ESE,123,0.0,0.0,94,0.00,,---,0.00,VWS V14.01,2013-09-10 08:38:00,
2013-09-10 02:43:00,58.4,57.0,29.72,ESE,123,0.0,0.0,95,0.00,,---,0.00,VWS V14.01,2013-09-10 08:43:00,
2013-09-10 02:48:00,58.4,57.0,29.72,ESE,123,0.0,0.0,95,0.00,,---,0.00,VWS V14.01,2013-09-10 08:48:00,
2013-09-10 02:53:00,58.6,57.2,29.72,ESE,123,0.0,0.0,95,0.00,,---,0.00,VWS V14.01,2013-09-10 08:53:00,
2013-09-10 02:58:00,58.6,57.2,29.72,ESE,123,0.0,0.0,95,0.00,,---,0.00,VWS V14.01,2013-09-10 08:58:00,
2013-09-10 03:04:00,58.6,57.2,29.72,ESE,123,0.0,0.0,95,0.00,,---,0.00,VWS V14.01,2013-09-10 09:04:00,
2013-09-10 03:09:00,58.6,57.2,29.72,ESE,123,0.0,0.0,95,0.00,,---,0.00,VWS V14.01,2013-09-10 09:09:00,
2013-09-10 03:15:00,58.6,57.2,29.72,ESE,123,0.0,0.0,95,0.00,,---,0.00,VWS V14.01,2013-09-10 09:15:00,
2013-09-10 03:20:00,58.7,57.3,29.72,ESE,123,0.0,0.0,95,0.00,,---,0.00,VWS V14.01,2013-09-10 09:20:00,
2013-09-10 03:26:00,58.9,57.5,29.72,ESE,123,0.0,0.0,95,0.00,,---,0.00,VWS V14.01,2013-09-10 09:26:00,
2013-09-10 03:32:00,58.9,57.5,29.72,ESE,123,0.0,0.0,95,0.00,,---,0.00,VWS V14.01,2013-09-10 09:32:00,
2013-09-10 03:38:00,58.9,57.5,29.72,ESE,123,0.0,0.0,95,0.00,,---,0.00,VWS V14.01,2013-09-10 09:38:00,
2013-09-10 03:43:00,58.9,57.5,29.72,ESE,123,0.0,0.0,95,0.00,,---,0.00,VWS V14.01,2013-09-10 09:43:00,
2013-09-10 03:48:00,58.9,57.5,29.72,ESE,123,0.0,0.0,95,0.00,,---,0.00,VWS V14.01,2013-09-10 09:48:00,
2013-09-10 03:53:00,58.9,57.5,29.72,ESE,123,0.0,0.0,95,0.00,,---,0.00,VWS V14.01,2013-09-10 09:53:00,
2013-09-10 03:59:00,58.9,57.5,29.71,ESE,123,0.0,0.0,95,0.00,,---,0.00,VWS V14.01,2013-09-10 09:59:00,
2013-09-10 04:04:00,58.7,57.3,29.71,ESE,123,0.0,0.0,95,0.00,,---,0.00,VWS V14.01,2013-09-10 10:04:00,
2013-09-10 04:10:00,58.4,57.0,29.71,ESE,123,0.0,0.0,95,0.00,,---,0.00,VWS V14.01,2013-09-10 10:10:00,
2013-09-10 04:15:00,58.4,57.0,29.72,ESE,123,0.0,0.0,95,0.00,,---,0.00,VWS V14.01,2013-09-10 10:15:00,
2013-09-10 04:21:00,58.3,56.9,29.72,ESE,123,0.0,0.0,95,0.00,,---,0.00,VWS V14.01,2013-09-10 10:21:00,
2013-09-10 04:26:00,58.3,56.9,29.72,ESE,123,0.0,0.0,95,0.00,,---,0.00,VWS V14.01,2013-09-10 10:26:00,
2013-09-10 04:31:00,58.1,56.7,29.72,ESE,123,0.0,0.0,95,0.00,,---,0.00,VWS V14.01,2013-09-10 10:31:00,
2013-09-10 04:37:00,58.0,56.6,29.72,ESE,123,0.0,0.0,95,0.00,,---,0.00,VWS V14.01,2013-09-10 10:37:00,
2013-09-10 04:42:00,58.0,56.6,29.71,ESE,123,0.0,0.0,95,0.00,,---,0.00,VWS V14.01,2013-09-10 10:42:00,
2013-09-10 04:47:00,57.6,56.2,29.71,ESE,123,0.0,0.0,95,0.00,,---,0.00,VWS V14.01,2013-09-10 10:47:00,
2013-09-10 04:53:00,57.5,56.1,29.71,ESE,123,0.0,0.0,95,0.00,,---,0.00,VWS V14.01,2013-09-10 10:53:00,
2013-09-10 04:58:00,57.3,55.9,29.74,ESE,123,0.0,0.0,95,0.00,,---,0.00,VWS V14.01,2013-09-10 10:58:00,
2013-09-10 05:03:00,57.3,55.9,29.74,ESE,123,0.0,0.0,95,0.00,,---,0.00,VWS V14.01,2013-09-10 11:03:00,
2013-09-10 05:08:00,57.5,56.4,29.74,ESE,123,0.0,0.0,96,0.00,,---,0.00,VWS V14.01,2013-09-10 11:08:00,
2013-09-10 05:13:00,57.6,56.2,29.71,ESE,123,0.0,0.0,95,0.00,,---,0.00,VWS V14.01,2013-09-10 11:13:00,
2013-09-10 05:19:00,57.6,56.2,29.71,ESE,123,0.0,0.0,95,0.00,,---,0.00,VWS V14.01,2013-09-10 11:19:00,
2013-09-10 05:24:00,57.5,56.1,29.71,ESE,123,0.0,0.0,95,0.00,,---,0.00,VWS V14.01,2013-09-10 11:24:00,
2013-09-10 05:30:00,57.3,55.9,29.72,ESE,123,0.0,0.0,95,0.00,,---,0.00,VWS V14.01,2013-09-10 11:30:00,
2013-09-10 05:35:00,57.2,55.8,29.72,ESE,123,0.0,0.0,95,0.00,,---,0.00,VWS V14.01,2013-09-10 11:35:00,
2013-09-10 05:40:00,57.2,56.1,29.72,ESE,123,0.0,0.0,96,0.00,,---,0.00,VWS V14.01,2013-09-10 11:40:00,
2013-09-10 05:46:00,57.3,55.9,29.72,ESE,123,0.0,0.0,95,0.00,,---,0.00,VWS V14.01,2013-09-10 11:46:00,
2013-09-10 05:51:00,57.2,55.8,29.72,ESE,123,0.0,0.0,95,0.00,,---,0.00,VWS V14.01,2013-09-10 11:51:00,
2013-09-10 05:56:00,57.2,56.1,29.72,ESE,123,0.0,0.0,96,0.00,,---,0.00,VWS V14.01,2013-09-10 11:56:00,
2013-09-10 06:01:00,56.9,55.5,29.72,ESE,123,0.0,0.0,95,0.00,,---,0.00,VWS V14.01,2013-09-10 12:01:00,
2013-09-10 06:07:00,56.9,55.8,29.72,ESE,123,0.0,0.0,96,0.00,,---,0.00,VWS V14.01,2013-09-10 12:07:00,
2013-09-10 06:13:00,56.9,55.8,29.73,ESE,123,0.0,0.0,96,0.00,,---,0.00,VWS V14.01,2013-09-10 12:13:00,
2013-09-10 06:18:00,57.0,55.9,29.73,ESE,123,0.0,0.0,96,0.00,,---,0.00,VWS V14.01,2013-09-10 12:18:00,
2013-09-10 06:23:00,57.2,56.1,29.73,ESE,123,0.0,0.0,96,0.01,,---,0.01,VWS V14.01,2013-09-10 12:23:00,
2013-09-10 06:29:00,57.2,56.1,29.73,ESE,123,0.0,0.0,96,0.01,,---,0.01,VWS V14.01,2013-09-10 12:29:00,
2013-09-10 06:34:00,57.3,56.2,29.73,ESE,123,0.0,0.0,96,0.01,,---,0.01,VWS V14.01,2013-09-10 12:34:00,
2013-09-10 06:40:00,57.5,56.4,29.73,ESE,123,0.0,0.0,96,0.01,,---,0.01,VWS V14.01,2013-09-10 12:40:00,
2013-09-10 06:46:00,57.6,56.5,29.74,ESE,123,0.0,0.0,96,0.01,,---,0.01,VWS V14.01,2013-09-10 12:46:00,
2013-09-10 06:51:00,57.6,56.5,29.74,ESE,123,0.0,0.0,96,0.01,,---,0.01,VWS V14.01,2013-09-10 12:51:00,
2013-09-10 06:57:00,57.6,56.5,29.73,ESE,123,0.0,0.0,96,0.01,,---,0.01,VWS V14.01,2013-09-10 12:57:00,
2013-09-10 07:02:00,57.6,56.5,29.73,ESE,123,0.0,0.0,96,0.01,,---,0.01,VWS V14.01,2013-09-10 13:02:00,
2013-09-10 07:08:00,57.8,56.7,29.73,ESE,123,0.0,0.0,96,0.01,,---,0.01,VWS V14.01,2013-09-10 13:08:00,
2013-09-10 07:13:00,57.8,56.7,29.74,ESE,123,0.0,0.0,96,0.01,,---,0.01,VWS V14.01,2013-09-10 13:13:00,
2013-09-10 07:18:00,57.8,56.7,29.74,ESE,123,0.0,0.0,96,0.01,,---,0.01,VWS V14.01,2013-09-10 13:18:00,
2013-09-10 07:24:00,58.0,56.9,29.74,ESE,123,0.0,0.0,96,0.00,,---,0.01,VWS V14.01,2013-09-10 13:24:00,
2013-09-10 07:29:00,58.1,57.0,29.75,ESE,123,0.0,0.0,96,0.00,,---,0.01,VWS V14.01,2013-09-10 13:29:00,
2013-09-10 07:34:00,58.1,57.0,29.75,ESE,123,0.0,0.0,96,0.00,,---,0.01,VWS V14.01,2013-09-10 13:34:00,
2013-09-10 07:40:00,58.3,57.2,29.75,ESE,123,0.0,0.0,96,0.00,,---,0.01,VWS V14.01,2013-09-10 13:40:00,
2013-09-10 07:45:00,58.4,57.3,29.75,ESE,123,0.0,0.0,96,0.00,,---,0.01,VWS V14.01,2013-09-10 13:45:00,
2013-09-10 07:50:00,58.6,57.5,29.75,ESE,123,0.0,0.0,96,0.00,,---,0.01,VWS V14.01,2013-09-10 13:50:00,
2013-09-10 07:55:00,58.9,57.8,29.75,ESE,123,0.0,0.0,96,0.00,,---,0.01,VWS V14.01,2013-09-10 13:55:00,
2013-09-10 08:01:00,59.0,57.9,29.75,ESE,123,0.0,0.0,96,0.00,,---,0.01,VWS V14.01,2013-09-10 14:01:00,
2013-09-10 08:06:00,59.3,58.2,29.75,ESE,123,0.0,0.0,96,0.00,,---,0.01,VWS V14.01,2013-09-10 14:06:00,
2013-09-10 08:11:00,59.5,58.4,29.75,ESE,123,0.0,0.0,96,0.00,,---,0.01,VWS V14.01,2013-09-10 14:11:00,
2013-09-10 08:16:00,59.8,58.7,29.75,ESE,123,0.0,0.0,96,0.00,,---,0.01,VWS V14.01,2013-09-10 14:16:00,
2013-09-10 08:22:00,60.1,59.0,29.75,ESE,123,0.0,0.0,96,0.00,,---,0.01,VWS V14.01,2013-09-10 14:22:00,
2013-09-10 08:28:00,60.4,59.3,29.75,ESE,123,0.0,0.0,96,0.00,,---,0.01,VWS V14.01,2013-09-10 14:28:00,
2013-09-10 08:33:00,61.3,60.4,29.75,ESE,123,0.0,0.0,97,0.00,,---,0.01,VWS V14.01,2013-09-10 14:33:00,
2013-09-10 08:39:00,62.3,61.4,29.75,ESE,123,0.0,0.0,97,0.00,,---,0.01,VWS V14.01,2013-09-10 14:39:00,
2013-09-10 08:44:00,62.7,61.5,29.74,ESE,123,0.0,0.0,96,0.00,,---,0.01,VWS V14.01,2013-09-10 14:44:00,
2013-09-10 08:50:00,62.6,61.5,29.74,ESE,123,0.0,0.0,96,0.00,,---,0.01,VWS V14.01,2013-09-10 14:50:00,
2013-09-10 08:55:00,62.1,60.7,29.74,ESE,123,0.0,0.0,95,0.00,,---,0.01,VWS V14.01,2013-09-10 14:55:00,
2013-09-10 09:00:00,61.8,60.4,29.74,ESE,123,0.0,0.0,95,0.00,,---,0.01,VWS V14.01,2013-09-10 15:00:00,
2013-09-10 09:05:00,61.6,59.9,29.74,ESE,123,0.0,0.0,94,0.00,,---,0.01,VWS V14.01,2013-09-10 15:05:00,
2013-09-10 09:11:00,61.6,60.2,29.75,ESE,123,0.0,0.0,95,0.00,,---,0.01,VWS V14.01,2013-09-10 15:11:00,
2013-09-10 09:16:00,61.6,59.9,29.75,NE,36,0.0,0.0,94,0.00,,---,0.01,VWS V14.01,2013-09-10 15:16:00,
2013-09-10 09:21:00,61.8,60.1,29.75,SSW,196,0.0,0.0,94,0.00,,---,0.01,VWS V14.01,2013-09-10 15:21:00,
2013-09-10 09:27:00,61.8,60.1,29.75,SSW,196,0.0,0.0,94,0.00,,---,0.01,VWS V14.01,2013-09-10 15:27:00,
2013-09-10 09:32:00,61.8,59.8,29.75,SSW,196,0.0,0.0,93,0.00,,---,0.01,VWS V14.01,2013-09-10 15:32:00,
2013-09-10 09:37:00,61.8,59.8,29.75,SSW,196,0.0,0.0,93,0.00,,---,0.01,VWS V14.01,2013-09-10 15:37:00,
2013-09-10 09:42:00,62.0,60.0,29.75,SSW,196,0.0,0.0,93,0.00,,---,0.01,VWS V14.01,2013-09-10 15:42:00,
2013-09-10 09:47:00,61.8,59.5,29.75,SSW,196,0.0,0.0,92,0.00,,---,0.01,VWS V14.01,2013-09-10 15:47:00,
2013-09-10 09:52:00,61.8,59.5,29.75,SSW,196,0.0,0.0,92,0.00,,---,0.01,VWS V14.01,2013-09-10 15:52:00,
2013-09-10 09:57:00,62.0,59.7,29.76,SSW,196,0.0,0.0,92,0.00,,---,0.01,VWS V14.01,2013-09-10 15:57:00,
2013-09-10 10:03:00,62.1,59.8,29.76,SSW,196,0.0,0.0,92,0.00,,---,0.01,VWS V14.01,2013-09-10 16:03:00,
2013-09-10 10:08:00,62.3,60.0,29.76,SSW,196,0.0,0.0,92,0.00,,---,0.01,VWS V14.01,2013-09-10 16:08:00,
2013-09-10 10:13:00,62.4,59.7,29.76,East,97,0.0,0.0,91,0.00,,---,0.01,VWS V14.01,2013-09-10 16:13:00,
2013-09-10 10:18:00,62.6,59.9,29.76,NNE,14,0.0,0.0,91,0.00,,---,0.01,VWS V14.01,2013-09-10 16:18:00,
2013-09-10 10:23:00,62.6,59.9,29.76,NNE,14,0.0,0.0,91,0.00,,---,0.01,VWS V14.01,2013-09-10 16:23:00,
2013-09-10 10:29:00,62.6,59.9,29.76,SW,234,3.0,3.0,91,0.00,,---,0.01,VWS V14.01,2013-09-10 16:29:00,
2013-09-10 10:34:00,62.7,60.0,29.76,SW,234,1.0,1.0,91,0.00,,---,0.01,VWS V14.01,2013-09-10 16:34:00,
2013-09-10 10:39:00,62.9,60.2,29.76,SW,234,0.0,1.0,91,0.00,,---,0.01,VWS V14.01,2013-09-10 16:39:00,
2013-09-10 10:45:00,63.1,60.4,29.76,SW,234,1.0,2.0,91,0.00,,---,0.01,VWS V14.01,2013-09-10 16:45:00,
2013-09-10 10:50:00,63.2,60.2,29.76,SW,233,2.0,2.0,90,0.00,,---,0.01,VWS V14.01,2013-09-10 16:50:00,
2013-09-10 10:56:00,63.2,59.9,29.76,SW,233,0.0,0.0,89,0.00,,---,0.01,VWS V14.01,2013-09-10 16:56:00,
2013-09-10 11:01:00,63.4,60.1,29.76,SW,233,0.0,0.0,89,0.00,,---,0.01,VWS V14.01,2013-09-10 17:01:00,
2013-09-10 11:06:00,63.5,59.9,29.76,SW,233,0.0,0.0,88,0.00,,---,0.01,VWS V14.01,2013-09-10 17:06:00,
2013-09-10 11:11:00,63.7,59.8,29.75,SW,233,0.0,0.0,87,0.00,,---,0.01,VWS V14.01,2013-09-10 17:11:00,
2013-09-10 11:17:00,63.9,60.0,29.75,SW,233,0.0,0.0,87,0.00,,---,0.01,VWS V14.01,2013-09-10 17:17:00,
2013-09-10 11:22:00,63.9,59.6,29.75,SW,233,0.0,0.0,86,0.00,,---,0.01,VWS V14.01,2013-09-10 17:22:00,
2013-09-10 11:27:00,64.0,59.4,29.75,SW,233,0.0,0.0,85,0.00,,---,0.01,VWS V14.01,2013-09-10 17:27:00,
2013-09-10 11:33:00,64.2,59.6,29.75,SW,233,0.0,0.0,85,0.00,,---,0.01,VWS V14.01,2013-09-10 17:33:00,
2013-09-10 11:38:00,64.3,59.4,29.75,SW,234,0.0,0.0,84,0.00,,---,0.01,VWS V14.01,2013-09-10 17:38:00,
2013-09-10 11:43:00,64.5,59.6,29.76,SW,234,0.0,0.0,84,0.00,,---,0.01,VWS V14.01,2013-09-10 17:43:00,
2013-09-10 11:48:00,64.7,59.4,29.76,SW,234,0.0,0.0,83,0.00,,---,0.01,VWS V14.01,2013-09-10 17:48:00,
2013-09-10 11:53:00,64.7,59.1,29.76,SW,234,2.0,4.0,82,0.00,,---,0.01,VWS V14.01,2013-09-10 17:53:00,
2013-09-10 11:58:00,64.5,58.5,29.76,SW,234,0.0,0.0,81,0.00,,---,0.01,VWS V14.01,2013-09-10 17:58:00,
2013-09-10 12:03:00,64.5,58.5,29.76,West,275,3.0,5.0,81,0.00,,---,0.01,VWS V14.01,2013-09-10 18:03:00,
2013-09-10 12:09:00,64.3,58.7,29.76,West,273,0.0,2.0,82,0.00,,---,0.01,VWS V14.01,2013-09-10 18:09:00,
2013-09-10 12:14:00,64.2,58.6,29.77,West,271,1.0,4.0,82,0.00,,---,0.01,VWS V14.01,2013-09-10 18:14:00,
2013-09-10 12:19:00,64.0,58.7,29.77,West,271,0.0,4.0,83,0.00,,---,0.01,VWS V14.01,2013-09-10 18:19:00,
2013-09-10 12:24:00,64.0,58.7,29.77,West,271,1.0,2.0,83,0.00,,---,0.01,VWS V14.01,2013-09-10 18:24:00,
2013-09-10 12:29:00,64.0,59.1,29.77,West,268,2.0,4.0,84,0.00,,---,0.01,VWS V14.01,2013-09-10 18:29:00,
2013-09-10 12:34:00,63.9,59.3,29.77,WSW,244,4.0,4.0,85,0.00,,---,0.01,VWS V14.01,2013-09-10 18:34:00,
2013-09-10 12:39:00,63.7,59.4,29.77,WSW,247,1.0,4.0,86,0.00,,---,0.01,VWS V14.01,2013-09-10 18:39:00,
2013-09-10 12:44:00,63.7,59.8,29.76,WSW,247,0.0,1.0,87,0.00,,---,0.01,VWS V14.01,2013-09-10 18:44:00,
2013-09-10 12:49:00,63.7,59.8,29.76,WSW,251,2.0,6.0,87,0.00,,---,0.01,VWS V14.01,2013-09-10 18:49:00,
2013-09-10 12:54:00,63.4,59.5,29.76,WSW,252,0.0,4.0,87,0.01,,---,0.02,VWS V14.01,2013-09-10 18:54:00,
2013-09-10 12:59:00,63.2,59.6,29.77,WSW,252,0.0,0.0,88,0.01,,---,0.02,VWS V14.01,2013-09-10 18:59:00,
2013-09-10 13:04:00,63.2,59.6,29.77,WSW,252,0.0,3.0,88,0.01,,---,0.02,VWS V14.01,2013-09-10 19:04:00,
2013-09-10 13:10:00,63.4,60.1,29.77,WSW,252,0.0,0.0,89,0.01,,---,0.02,VWS V14.01,2013-09-10 19:10:00,
2013-09-10 13:15:00,63.5,60.2,29.77,WSW,252,2.0,2.0,89,0.01,,---,0.02,VWS V14.01,2013-09-10 19:15:00,
2013-09-10 13:20:00,63.9,60.6,29.77,WSW,252,0.0,4.0,89,0.01,,---,0.02,VWS V14.01,2013-09-10 19:20:00,
2013-09-10 13:25:00,63.9,60.3,29.77,WSW,252,1.0,4.0,88,0.01,,---,0.02,VWS V14.01,2013-09-10 19:25:00,
2013-09-10 13:31:00,64.2,60.3,29.77,WSW,252,0.0,1.0,87,0.01,,---,0.02,VWS V14.01,2013-09-10 19:31:00,
2013-09-10 13:36:00,64.5,60.9,29.77,WSW,252,3.0,3.0,88,0.01,,---,0.02,VWS V14.01,2013-09-10 19:36:00,
2013-09-10 13:42:00,65.0,61.0,29.75,WSW,252,0.0,0.0,87,0.01,,---,0.02,VWS V14.01,2013-09-10 19:42:00,
2013-09-10 13:47:00,65.3,61.0,29.75,WSW,252,0.0,0.0,86,0.01,,---,0.02,VWS V14.01,2013-09-10 19:47:00,
2013-09-10 13:52:00,65.8,61.2,29.75,WSW,252,0.0,0.0,85,0.01,,---,0.02,VWS V14.01,2013-09-10 19:52:00,
2013-09-10 13:58:00,66.4,60.4,29.74,WSW,252,0.0,0.0,81,0.00,,---,0.02,VWS V14.01,2013-09-10 19:58:00,
2013-09-10 14:03:00,66.6,60.6,29.74,WSW,252,3.0,4.0,81,0.00,,---,0.02,VWS V14.01,2013-09-10 20:03:00,
2013-09-10 14:08:00,66.9,60.9,29.74,WSW,252,0.0,0.0,81,0.00,,---,0.02,VWS V14.01,2013-09-10 20:08:00,
2013-09-10 14:14:00,66.9,60.5,29.74,WSW,252,0.0,1.0,80,0.00,,---,0.02,VWS V14.01,2013-09-10 20:14:00,
2013-09-10 14:19:00,67.1,60.7,29.74,WSW,252,2.0,3.0,80,0.00,,---,0.02,VWS V14.01,2013-09-10 20:19:00,
2013-09-10 14:24:00,67.1,60.0,29.74,WSW,252,0.0,0.0,78,0.00,,---,0.02,VWS V14.01,2013-09-10 20:24:00,
2013-09-10 14:30:00,67.4,60.3,29.74,WSW,252,0.0,0.0,78,0.00,,---,0.02,VWS V14.01,2013-09-10 20:30:00,
2013-09-10 14:35:00,67.9,60.1,29.74,WSW,252,0.0,3.0,76,0.00,,---,0.02,VWS V14.01,2013-09-10 20:35:00,
2013-09-10 14:40:00,68.4,60.2,29.74,WSW,252,3.0,4.0,75,0.00,,---,0.02,VWS V14.01,2013-09-10 20:40:00,
2013-09-10 14:45:00,69.1,60.1,29.72,WSW,252,0.0,3.0,73,0.00,,---,0.02,VWS V14.01,2013-09-10 20:45:00,
2013-09-10 14:51:00,69.6,59.4,29.72,WSW,252,0.0,0.0,70,0.00,,---,0.02,VWS V14.01,2013-09-10 20:51:00,
2013-09-10 14:56:00,70.1,61.0,29.70,WSW,252,0.0,1.0,73,0.00,,---,0.02,VWS V14.01,2013-09-10 20:56:00,
2013-09-10 15:01:00,70.6,60.8,29.70,WSW,252,0.0,3.0,71,0.00,,---,0.02,VWS V14.01,2013-09-10 21:01:00,
2013-09-10 15:06:00,70.8,60.5,29.70,South,171,1.0,3.0,70,0.00,,---,0.02,VWS V14.01,2013-09-10 21:06:00,
2013-09-10 15:13:00,70.9,59.8,29.71,SW,223,4.0,6.0,68,0.00,,---,0.02,VWS V14.01,2013-09-10 21:13:00,
2013-09-10 15:18:00,70.6,60.0,29.71,SW,223,0.0,0.0,69,0.00,,---,0.02,VWS V14.01,2013-09-10 21:18:00,
2013-09-10 15:23:00,70.6,60.0,29.71,SW,223,0.0,0.0,69,0.00,,---,0.02,VWS V14.01,2013-09-10 21:23:00,
2013-09-10 15:28:00,70.4,59.3,29.70,SW,223,4.0,5.0,68,0.00,,---,0.02,VWS V14.01,2013-09-10 21:28:00,
2013-09-10 15:33:00,70.1,59.9,29.70,SW,223,0.0,2.0,70,0.00,,---,0.02,VWS V14.01,2013-09-10 21:33:00,
2013-09-10 15:38:00,69.9,59.7,29.70,SW,223,0.0,2.0,70,0.00,,---,0.02,VWS V14.01,2013-09-10 21:38:00,
2013-09-10 15:44:00,69.8,60.0,29.71,WSW,242,5.0,6.0,71,0.00,,---,0.02,VWS V14.01,2013-09-10 21:44:00,
2013-09-10 15:49:00,69.3,59.9,29.71,West,265,4.0,6.0,72,0.00,,---,0.02,VWS V14.01,2013-09-10 21:49:00,
2013-09-10 15:54:00,68.8,59.4,29.71,West,277,10.0,10.0,72,0.00,,---,0.02,VWS V14.01,2013-09-10 21:54:00,
2013-09-10 15:59:00,68.1,59.1,29.72,West,277,7.0,12.0,73,0.00,,---,0.02,VWS V14.01,2013-09-10 21:59:00,
2013-09-10 16:04:00,67.4,58.8,29.72,West,274,11.0,12.0,74,0.00,,---,0.02,VWS V14.01,2013-09-10 22:04:00,
2013-09-10 16:09:00,67.1,59.3,29.72,West,266,8.0,8.0,76,0.00,,---,0.02,VWS V14.01,2013-09-10 22:09:00,
2013-09-10 16:15:00,66.6,58.8,29.75,West,277,4.0,10.0,76,0.00,,---,0.02,VWS V14.01,2013-09-10 22:15:00,
2013-09-10 16:20:00,66.3,58.5,29.75,WNW,294,5.0,12.0,76,0.00,,---,0.02,VWS V14.01,2013-09-10 22:20:00,
2013-09-10 16:25:00,66.0,59.0,29.75,West,264,8.0,8.0,78,0.00,,---,0.02,VWS V14.01,2013-09-10 22:25:00,
2013-09-10 16:30:00,65.6,58.9,29.76,WNW,302,3.0,5.0,79,0.00,,---,0.02,VWS V14.01,2013-09-10 22:30:00,
2013-09-10 16:35:00,65.3,59.0,29.76,WSW,252,3.0,9.0,80,0.00,,---,0.02,VWS V14.01,2013-09-10 22:35:00,
2013-09-10 16:40:00,65.0,59.0,29.76,West,275,0.0,5.0,81,0.01,,---,0.03,VWS V14.01,2013-09-10 22:40:00,
2013-09-10 16:46:00,64.7,59.4,29.77,West,277,7.0,9.0,83,0.01,,---,0.03,VWS V14.01,2013-09-10 22:46:00,
2013-09-10 16:51:00,64.2,59.3,29.77,West,269,2.0,7.0,84,0.02,,---,0.04,VWS V14.01,2013-09-10 22:51:00,
2013-09-10 16:56:00,63.9,59.3,29.78,West,277,3.0,6.0,85,0.02,,---,0.04,VWS V14.01,2013-09-10 22:56:00,
2013-09-10 17:01:00,63.7,59.4,29.78,WNW,287,0.0,4.0,86,0.03,,---,0.05,VWS V14.01,2013-09-10 23:01:00,
2013-09-10 17:07:00,63.4,59.2,29.78,West,273,1.0,2.0,86,0.03,,---,0.05,VWS V14.01,2013-09-10 23:07:00,
2013-09-10 17:12:00,63.1,58.8,29.77,WNW,291,0.0,0.0,86,0.03,,---,0.05,VWS V14.01,2013-09-10 23:12:00,
2013-09-10 17:17:00,62.9,59.0,29.77,West,281,0.0,4.0,87,0.04,,---,0.06,VWS V14.01,2013-09-10 23:17:00,
2013-09-10 17:22:00,62.9,59.0,29.77,West,281,0.0,0.0,87,0.05,,---,0.07,VWS V14.01,2013-09-10 23:22:00,
2013-09-10 17:27:00,62.7,59.1,29.78,West,281,3.0,3.0,88,0.05,,---,0.07,VWS V14.01,2013-09-10 23:27:00,
2013-09-10 17:32:00,62.7,59.1,29.78,West,281,0.0,0.0,88,0.06,,---,0.08,VWS V14.01,2013-09-10 23:32:00,
2013-09-10 17:37:00,62.7,59.4,29.78,West,281,0.0,0.0,89,0.06,,---,0.08,VWS V14.01,2013-09-10 23:37:00,
2013-09-10 17:43:00,62.6,59.3,29.78,West,281,0.0,0.0,89,0.06,,---,0.09,VWS V14.01,2013-09-10 23:43:00,
2013-09-10 17:49:00,62.6,59.3,29.78,West,281,0.0,3.0,89,0.05,,---,0.09,VWS V14.01,2013-09-10 23:49:00,
2013-09-10 17:54:00,62.4,59.4,29.78,West,281,0.0,0.0,90,0.05,,---,0.09,VWS V14.01,2013-09-10 23:54:00,
2013-09-10 17:59:00,62.4,59.4,29.78,West,281,0.0,0.0,90,0.04,,---,0.09,VWS V14.01,2013-09-10 23:59:00,
2013-09-10 18:05:00,62.4,59.4,29.78,West,281,0.0,1.0,90,0.04,,---,0.09,VWS V14.01,2013-09-11 00:05:00,
2013-09-10 18:10:00,62.4,59.4,29.78,West,281,0.0,0.0,90,0.04,,---,0.09,VWS V14.01,2013-09-11 00:10:00,
2013-09-10 18:15:00,62.4,59.4,29.77,West,281,0.0,0.0,90,0.04,,---,0.09,VWS V14.01,2013-09-11 00:15:00,
2013-09-10 18:21:00,62.4,59.7,29.77,West,281,0.0,0.0,91,0.02,,---,0.09,VWS V14.01,2013-09-11 00:21:00,
2013-09-10 18:26:00,62.3,59.6,29.77,West,281,0.0,0.0,91,0.03,,---,0.10,VWS V14.01,2013-09-11 00:26:00,
2013-09-10 18:31:00,62.3,59.6,29.77,West,281,0.0,0.0,91,0.02,,---,0.10,VWS V14.01,2013-09-11 00:31:00,
2013-09-10 18:37:00,62.3,59.6,29.77,West,281,0.0,0.0,91,0.02,,---,0.10,VWS V14.01,2013-09-11 00:37:00,
2013-09-10 18:42:00,62.3,59.6,29.78,West,281,0.0,0.0,91,0.01,,---,0.10,VWS V14.01,2013-09-11 00:42:00,
2013-09-10 18:47:00,62.4,60.0,29.78,West,281,0.0,2.0,92,0.01,,---,0.10,VWS V14.01,2013-09-11 00:47:00,
2013-09-10 18:52:00,62.4,60.0,29.78,West,281,0.0,0.0,92,0.01,,---,0.10,VWS V14.01,2013-09-11 00:52:00,
2013-09-10 18:57:00,62.4,60.0,29.77,West,281,3.0,3.0,92,0.01,,---,0.10,VWS V14.01,2013-09-11 00:57:00,
2013-09-10 19:02:00,62.4,60.0,29.77,West,281,0.0,4.0,92,0.02,,---,0.11,VWS V14.01,2013-09-11 01:02:00,
2013-09-10 19:07:00,62.4,60.0,29.77,West,281,0.0,2.0,92,0.02,,---,0.11,VWS V14.01,2013-09-11 01:07:00,
2013-09-10 19:13:00,62.3,60.0,29.77,West,281,0.0,0.0,92,0.03,,---,0.12,VWS V14.01,2013-09-11 01:13:00,
2013-09-10 19:18:00,62.3,60.0,29.77,West,281,0.0,0.0,92,0.03,,---,0.12,VWS V14.01,2013-09-11 01:18:00,
2013-09-10 19:24:00,62.1,59.8,29.77,West,281,0.0,0.0,92,0.02,,---,0.12,VWS V14.01,2013-09-11 01:24:00,
2013-09-10 19:29:00,62.0,59.7,29.77,West,281,0.0,0.0,92,0.02,,---,0.12,VWS V14.01,2013-09-11 01:29:00,
2013-09-10 19:35:00,61.8,59.5,29.77,West,281,0.0,0.0,92,0.02,,---,0.12,VWS V14.01,2013-09-11 01:35:00,
2013-09-10 19:40:00,61.8,59.5,29.77,West,281,0.0,0.0,92,0.02,,---,0.12,VWS V14.01,2013-09-11 01:40:00,
2013-09-10 19:46:00,61.8,59.8,29.78,West,281,0.0,0.0,93,0.02,,---,0.12,VWS V14.01,2013-09-11 01:46:00,
2013-09-10 19:51:00,61.8,59.8,29.78,West,281,0.0,0.0,93,0.02,,---,0.12,VWS V14.01,2013-09-11 01:51:00,
2013-09-10 19:56:00,61.6,59.6,29.78,West,281,0.0,0.0,93,0.03,,---,0.13,VWS V14.01,2013-09-11 01:56:00,
2013-09-10 20:01:00,61.6,59.6,29.78,West,281,0.0,0.0,93,0.02,,---,0.13,VWS V14.01,2013-09-11 02:01:00,
2013-09-10 20:07:00,61.6,59.6,29.78,West,281,0.0,0.0,93,0.02,,---,0.13,VWS V14.01,2013-09-11 02:07:00,
2013-09-10 20:12:00,61.8,59.8,29.76,West,281,0.0,0.0,93,0.02,,---,0.14,VWS V14.01,2013-09-11 02:12:00,
2013-09-10 20:18:00,61.8,59.8,29.76,West,281,0.0,0.0,93,0.02,,---,0.14,VWS V14.01,2013-09-11 02:18:00,
2013-09-10 20:24:00,61.8,59.8,29.76,West,281,0.0,0.0,93,0.03,,---,0.15,VWS V14.01,2013-09-11 02:24:00,
2013-09-10 20:29:00,61.8,60.1,29.76,West,281,0.0,0.0,94,0.03,,---,0.15,VWS V14.01,2013-09-11 02:29:00,
2013-09-10 20:34:00,61.6,59.6,29.76,West,281,0.0,0.0,93,0.03,,---,0.15,VWS V14.01,2013-09-11 02:34:00,
2013-09-10 20:39:00,61.6,59.6,29.76,West,281,0.0,0.0,93,0.03,,---,0.15,VWS V14.01,2013-09-11 02:39:00,
2013-09-10 20:45:00,61.5,59.5,29.76,West,281,0.0,0.0,93,0.03,,---,0.15,VWS V14.01,2013-09-11 02:45:00,
2013-09-10 20:50:00,61.3,59.3,29.76,West,281,0.0,0.0,93,0.03,,---,0.15,VWS V14.01,2013-09-11 02:50:00,
2013-09-10 20:56:00,61.3,59.3,29.78,West,281,0.0,0.0,93,0.02,,---,0.15,VWS V14.01,2013-09-11 02:56:00,
2013-09-10 21:02:00,61.2,59.5,29.78,West,281,0.0,0.0,94,0.02,,---,0.15,VWS V14.01,2013-09-11 03:02:00,
2013-09-10 21:05:00,61.0,59.3,29.79,West,281,0.0,0.0,94,0.01,,---,0.16,VWS V14.01,2013-09-11 03:05:00,
2013-09-10 21:06:00,61.0,59.3,29.79,West,281,0.0,0.0,94,0.01,,---,0.16,VWS V14.01,2013-09-11 03:06:00,
2013-09-10 21:07:00,61.2,59.5,29.78,West,281,0.0,0.0,94,0.02,,---,0.15,VWS V14.01,2013-09-11 03:07:00,
2013-09-10 21:08:00,61.0,59.3,29.79,West,281,0.0,0.0,94,0.01,,---,0.16,VWS V14.01,2013-09-11 03:08:00,
2013-09-10 21:09:00,61.0,59.3,29.79,West,281,0.0,0.0,94,0.01,,---,0.16,VWS V14.01,2013-09-11 03:09:00,
2013-09-10 21:10:00,61.0,59.6,29.79,West,281,0.0,0.0,95,0.01,,---,0.16,VWS V14.01,2013-09-11 03:10:00,
2013-09-10 21:11:00,61.0,59.6,29.79,West,281,0.0,0.0,95,0.01,,---,0.16,VWS V14.01,2013-09-11 03:11:00,
2013-09-10 21:12:00,61.3,59.6,29.77,West,281,0.0,0.0,94,0.02,,---,0.15,VWS V14.01,2013-09-11 03:12:00,
2013-09-10 21:13:00,61.0,59.6,29.79,West,281,0.0,0.0,95,0.01,,---,0.16,VWS V14.01,2013-09-11 03:13:00,
2013-09-10 21:14:00,61.0,59.6,29.79,West,281,0.0,0.0,95,0.01,,---,0.16,VWS V14.01,2013-09-11 03:14:00,
2013-09-10 21:15:00,61.0,59.6,29.76,West,281,0.0,0.0,95,0.01,,---,0.16,VWS V14.01,2013-09-11 03:15:00,
2013-09-10 21:16:00,61.0,59.6,29.76,West,281,0.0,0.0,95,0.01,,---,0.16,VWS V14.01,2013-09-11 03:16:00,
2013-09-10 21:17:00,61.0,59.6,29.76,West,281,0.0,0.0,95,0.01,,---,0.16,VWS V14.01,2013-09-11 03:17:00,
2013-09-10 21:18:00,61.2,59.5,29.77,West,281,0.0,0.0,94,0.01,,---,0.15,VWS V14.01,2013-09-11 03:18:00,
2013-09-10 21:19:00,61.0,59.6,29.76,West,281,0.0,0.0,95,0.01,,---,0.16,VWS V14.01,2013-09-11 03:19:00,
2013-09-10 21:20:00,61.0,59.6,29.76,West,281,0.0,0.0,95,0.01,,---,0.16,VWS V14.01,2013-09-11 03:20:00,
2013-09-10 21:21:00,61.0,59.6,29.76,West,281,0.0,0.0,95,0.01,,---,0.16,VWS V14.01,2013-09-11 03:21:00,
2013-09-10 21:22:00,60.9,59.5,29.76,West,281,0.0,0.0,95,0.01,,---,0.16,VWS V14.01,2013-09-11 03:22:00,
2013-09-10 21:23:00,61.2,59.5,29.77,West,281,0.0,0.0,94,0.01,,---,0.16,VWS V14.01,2013-09-11 03:23:00,
2013-09-10 21:24:00,60.9,59.5,29.76,West,281,0.0,0.0,95,0.01,,---,0.16,VWS V14.01,2013-09-11 03:24:00,
2013-09-10 21:25:00,60.9,59.2,29.76,West,281,0.0,0.0,94,0.01,,---,0.16,VWS V14.01,2013-09-11 03:25:00,
2013-09-10 21:26:00,60.9,59.5,29.76,West,281,0.0,0.0,95,0.00,,---,0.16,VWS V14.01,2013-09-11 03:26:00,
2013-09-10 21:27:00,60.9,59.5,29.76,West,281,0.0,0.0,95,0.00,,---,0.16,VWS V14.01,2013-09-11 03:27:00,
2013-09-10 21:28:00,61.2,59.5,29.77,West,281,0.0,0.0,94,0.01,,---,0.16,VWS V14.01,2013-09-11 03:28:00,
2013-09-10 21:29:00,60.9,59.5,29.76,West,281,0.0,0.0,95,0.00,,---,0.16,VWS V14.01,2013-09-11 03:29:00,
2013-09-10 21:30:00,60.9,59.5,29.77,West,281,0.0,0.0,95,0.00,,---,0.16,VWS V14.01,2013-09-11 03:30:00,
2013-09-10 21:31:00,60.9,59.5,29.77,West,281,0.0,0.0,95,0.00,,---,0.16,VWS V14.01,2013-09-11 03:31:00,
2013-09-10 21:32:00,60.9,59.5,29.77,West,281,0.0,0.0,95,0.00,,---,0.16,VWS V14.01,2013-09-11 03:32:00,
2013-09-10 21:33:00,60.9,59.5,29.77,West,281,0.0,0.0,95,0.00,,---,0.16,VWS V14.01,2013-09-11 03:33:00,
2013-09-10 21:34:00,61.0,59.3,29.77,West,281,0.0,0.0,94,0.01,,---,0.16,VWS V14.01,2013-09-11 03:34:00,
2013-09-10 21:35:00,60.9,59.5,29.77,West,281,0.0,0.0,95,0.00,,---,0.16,VWS V14.01,2013-09-11 03:35:00,
2013-09-10 21:36:00,60.9,59.5,29.77,West,281,0.0,0.0,95,0.00,,---,0.16,VWS V14.01,2013-09-11 03:36:00,
2013-09-10 21:37:00,60.9,59.5,29.77,West,281,0.0,0.0,95,0.00,,---,0.16,VWS V14.01,2013-09-11 03:37:00,
2013-09-10 21:38:00,60.9,59.5,29.77,West,281,0.0,0.0,95,0.00,,---,0.16,VWS V14.01,2013-09-11 03:38:00,
2013-09-10 21:39:00,61.0,59.3,29.77,West,281,0.0,0.0,94,0.01,,---,0.16,VWS V14.01,2013-09-11 03:39:00,
2013-09-10 21:40:00,60.7,59.3,29.77,West,281,0.0,0.0,95,0.00,,---,0.16,VWS V14.01,2013-09-11 03:40:00,
2013-09-10 21:41:00,60.7,59.3,29.77,West,281,0.0,0.0,95,0.00,,---,0.16,VWS V14.01,2013-09-11 03:41:00,
2013-09-10 21:42:00,60.7,59.3,29.77,West,281,0.0,0.0,95,0.00,,---,0.16,VWS V14.01,2013-09-11 03:42:00,
2013-09-10 21:43:00,60.7,59.3,29.77,West,281,0.0,0.0,95,0.00,,---,0.16,VWS V14.01,2013-09-11 03:43:00,
2013-09-10 21:44:00,60.7,59.3,29.77,West,281,0.0,0.0,95,0.00,,---,0.16,VWS V14.01,2013-09-11 03:44:00,
2013-09-10 21:45:00,61.0,59.3,29.78,West,281,0.0,0.0,94,0.01,,---,0.16,VWS V14.01,2013-09-11 03:45:00,
2013-09-10 21:46:00,60.7,59.3,29.77,West,281,0.0,0.0,95,0.00,,---,0.16,VWS V14.01,2013-09-11 03:46:00,
2013-09-10 21:47:00,60.7,59.3,29.77,West,281,0.0,0.0,95,0.00,,---,0.16,VWS V14.01,2013-09-11 03:47:00,
2013-09-10 21:48:00,60.7,59.3,29.77,West,281,0.0,0.0,95,0.00,,---,0.16,VWS V14.01,2013-09-11 03:48:00,
2013-09-10 21:49:00,60.7,59.3,29.77,West,281,0.0,0.0,95,0.00,,---,0.16,VWS V14.01,2013-09-11 03:49:00,
2013-09-10 21:50:00,61.0,59.3,29.78,West,281,0.0,0.0,94,0.01,,---,0.16,VWS V14.01,2013-09-11 03:50:00,
2013-09-10 21:51:00,60.5,59.1,29.77,West,281,0.0,0.0,95,0.00,,---,0.16,VWS V14.01,2013-09-11 03:51:00,
2013-09-10 21:52:00,60.5,59.1,29.77,West,281,0.0,0.0,95,0.00,,---,0.16,VWS V14.01,2013-09-11 03:52:00,
2013-09-10 21:53:00,60.5,59.1,29.77,West,281,0.0,0.0,95,0.00,,---,0.16,VWS V14.01,2013-09-11 03:53:00,
2013-09-10 21:54:00,60.5,59.1,29.77,West,281,0.0,0.0,95,0.00,,---,0.16,VWS V14.01,2013-09-11 03:54:00,
2013-09-10 21:55:00,60.5,59.1,29.77,West,281,0.0,0.0,95,0.00,,---,0.16,VWS V14.01,2013-09-11 03:55:00,
2013-09-10 21:56:00,61.0,59.3,29.79,West,281,0.0,0.0,94,0.01,,---,0.16,VWS V14.01,2013-09-11 03:56:00,
2013-09-10 21:57:00,60.5,59.1,29.77,West,281,0.0,0.0,95,0.00,,---,0.16,VWS V14.01,2013-09-11 03:57:00,
2013-09-10 21:58:00,60.5,59.1,29.77,West,281,0.0,0.0,95,0.00,,---,0.16,VWS V14.01,2013-09-11 03:58:00,
2013-09-10 21:59:00,60.5,59.1,29.77,West,281,0.0,0.0,95,0.00,,---,0.16,VWS V14.01,2013-09-11 03:59:00,
2013-09-10 22:00:00,60.5,59.1,29.78,West,281,0.0,0.0,95,0.00,,---,0.16,VWS V14.01,2013-09-11 04:00:00,
2013-09-10 22:01:00,60.5,59.1,29.78,West,281,0.0,0.0,95,0.00,,---,0.16,VWS V14.01,2013-09-11 04:01:00,
2013-09-10 22:02:00,60.5,59.1,29.78,West,281,0.0,0.0,95,0.00,,---,0.16,VWS V14.01,2013-09-11 04:02:00,
2013-09-10 22:03:00,60.5,59.1,29.78,West,281,0.0,0.0,95,0.00,,---,0.16,VWS V14.01,2013-09-11 04:03:00,
2013-09-10 22:04:00,60.5,59.1,29.78,West,281,0.0,0.0,95,0.00,,---,0.16,VWS V14.01,2013-09-11 04:04:00,
2013-09-10 22:05:00,60.5,59.1,29.78,West,281,0.0,0.0,95,0.00,,---,0.16,VWS V14.01,2013-09-11 04:05:00,
2013-09-10 22:06:00,60.5,59.1,29.78,West,281,0.0,0.0,95,0.00,,---,0.16,VWS V14.01,2013-09-11 04:06:00,
2013-09-10 22:07:00,60.5,59.1,29.78,West,281,0.0,0.0,95,0.00,,---,0.16,VWS V14.01,2013-09-11 04:07:00,
2013-09-10 22:08:00,60.5,59.1,29.78,West,281,0.0,0.0,95,0.00,,---,0.16,VWS V14.01,2013-09-11 04:08:00,
2013-09-10 22:09:00,60.5,59.1,29.78,West,281,0.0,0.0,95,0.00,,---,0.16,VWS V14.01,2013-09-11 04:09:00,
2013-09-10 22:10:00,60.5,59.1,29.78,West,281,0.0,0.0,95,0.00,,---,0.16,VWS V14.01,2013-09-11 04:10:00,
2013-09-10 22:11:00,60.5,59.1,29.78,West,281,0.0,0.0,95,0.00,,---,0.16,VWS V14.01,2013-09-11 04:11:00,
2013-09-10 22:12:00,60.5,59.1,29.78,West,281,0.0,0.0,95,0.00,,---,0.16,VWS V14.01,2013-09-11 04:12:00,
2013-09-10 22:14:00,60.5,59.1,29.78,West,281,0.0,0.0,95,0.00,,---,0.16,VWS V14.01,2013-09-11 04:14:00,
2013-09-10 22:15:00,60.5,59.1,29.76,West,281,0.0,0.0,95,0.00,,---,0.16,VWS V14.01,2013-09-11 04:15:00,
2013-09-10 22:16:00,60.4,59.0,29.76,West,281,0.0,0.0,95,0.00,,---,0.16,VWS V14.01,2013-09-11 04:16:00,
2013-09-10 22:18:00,60.4,59.0,29.76,West,281,0.0,0.0,95,0.00,,---,0.16,VWS V14.01,2013-09-11 04:18:00,
2013-09-10 22:20:00,60.4,59.0,29.76,West,281,0.0,0.0,95,0.00,,---,0.16,VWS V14.01,2013-09-11 04:20:00,
2013-09-10 22:22:00,60.4,59.0,29.76,West,281,0.0,0.0,95,0.00,,---,0.16,VWS V14.01,2013-09-11 04:22:00,
2013-09-10 22:23:00,60.4,59.0,29.76,West,281,0.0,0.0,95,0.00,,---,0.16,VWS V14.01,2013-09-11 04:23:00,
2013-09-10 22:26:00,60.4,59.0,29.76,West,281,0.0,0.0,95,0.00,,---,0.16,VWS V14.01,2013-09-11 04:26:00,
2013-09-10 22:30:00,60.4,59.0,29.77,West,281,0.0,0.0,95,0.00,,---,0.16,VWS V14.01,2013-09-11 04:30:00,
2013-09-10 22:32:00,60.4,59.0,29.77,West,281,0.0,0.0,95,0.00,,---,0.16,VWS V14.01,2013-09-11 04:32:00,
2013-09-10 22:36:00,60.4,59.0,29.77,West,281,0.0,0.0,95,0.00,,---,0.16,VWS V14.01,2013-09-11 04:36:00,
2013-09-10 22:37:00,60.4,59.0,29.77,West,281,0.0,0.0,95,0.00,,---,0.16,VWS V14.01,2013-09-11 04:37:00,
2013-09-10 22:39:00,60.4,59.0,29.77,West,281,0.0,0.0,95,0.00,,---,0.16,VWS V14.01,2013-09-11 04:39:00,
2013-09-10 22:42:00,60.4,59.0,29.77,West,281,0.0,0.0,95,0.00,,---,0.16,VWS V14.01,2013-09-11 04:42:00,
2013-09-10 22:50:00,60.4,59.0,29.77,West,281,0.0,0.0,95,0.00,,---,0.16,VWS V14.01,2013-09-11 04:50:00,
2013-09-10 22:51:00,60.4,59.0,29.77,West,281,0.0,0.0,95,0.00,,---,0.16,VWS V14.01,2013-09-11 04:51:00,
2013-09-10 22:54:00,60.5,59.1,29.77,West,281,0.0,0.0,95,0.00,,---,0.16,VWS V14.01,2013-09-11 04:54:00,
2013-09-10 23:02:00,60.4,59.0,29.77,West,281,0.0,0.0,95,0.00,,---,0.16,VWS V14.01,2013-09-11 05:02:00,
2013-09-10 23:05:00,60.4,59.0,29.77,West,281,0.0,0.0,95,0.00,,---,0.16,VWS V14.01,2013-09-11 05:05:00,
2013-09-10 23:07:00,60.4,59.0,29.77,West,281,0.0,0.0,95,0.00,,---,0.16,VWS V14.01,2013-09-11 05:07:00,
2013-09-10 23:08:00,60.4,59.0,29.77,West,281,0.0,0.0,95,0.00,,---,0.16,VWS V14.01,2013-09-11 05:08:00,
2013-09-10 23:09:00,60.5,59.1,29.78,West,281,0.0,0.0,95,0.00,,---,0.16,VWS V14.01,2013-09-11 05:09:00,
2013-09-10 23:13:00,60.2,58.8,29.77,West,281,0.0,0.0,95,0.00,,---,0.16,VWS V14.01,2013-09-11 05:13:00,
2013-09-10 23:15:00,60.4,59.0,29.76,West,281,0.0,0.0,95,0.00,,---,0.16,VWS V14.01,2013-09-11 05:15:00,
2013-09-10 23:19:00,60.2,58.8,29.78,West,281,0.0,0.0,95,0.00,,---,0.16,VWS V14.01,2013-09-11 05:19:00,
2013-09-10 23:20:00,60.4,59.0,29.76,West,281,0.0,0.0,95,0.00,,---,0.16,VWS V14.01,2013-09-11 05:20:00,
2013-09-10 23:23:00,60.2,58.8,29.78,West,281,0.0,0.0,95,0.00,,---,0.16,VWS V14.01,2013-09-11 05:23:00,
2013-09-10 23:25:00,60.4,59.0,29.76,West,281,0.0,0.0,95,0.00,,---,0.16,VWS V14.01,2013-09-11 05:25:00,
2013-09-10 23:27:00,60.2,58.8,29.78,West,281,0.0,0.0,95,0.00,,---,0.16,VWS V14.01,2013-09-11 05:27:00,
2013-09-10 23:29:00,60.4,59.0,29.78,West,281,0.0,0.0,95,0.00,,---,0.16,VWS V14.01,2013-09-11 05:29:00,
2013-09-10 23:30:00,60.4,59.0,29.77,West,281,0.0,0.0,95,0.00,,---,0.16,VWS V14.01,2013-09-11 05:30:00,
2013-09-10 23:31:00,60.4,59.0,29.80,West,281,0.0,0.0,95,0.00,,---,0.16,VWS V14.01,2013-09-11 05:31:00,
2013-09-10 23:34:00,60.4,59.0,29.80,West,281,0.0,0.0,95,0.00,,---,0.16,VWS V14.01,2013-09-11 05:34:00,
2013-09-10 23:36:00,60.4,59.0,29.77,West,281,0.0,0.0,95,0.00,,---,0.16,VWS V14.01,2013-09-11 05:36:00,
2013-09-10 23:40:00,60.4,59.0,29.80,West,281,0.0,0.0,95,0.00,,---,0.16,VWS V14.01,2013-09-11 05:40:00,
2013-09-10 23:41:00,60.4,59.0,29.77,West,281,0.0,0.0,95,0.00,,---,0.16,VWS V14.01,2013-09-11 05:41:00,
2013-09-10 23:42:00,60.4,59.0,29.80,West,281,0.0,0.0,95,0.00,,---,0.16,VWS V14.01,2013-09-11 05:42:00,
2013-09-10 23:48:00,60.5,59.1,29.77,West,281,0.0,0.0,95,0.00,,---,0.16,VWS V14.01,2013-09-11 05:48:00,
2013-09-10 23:54:00,60.4,59.0,29.77,West,281,0.0,0.0,95,0.00,,---,0.16,VWS V14.01,2013-09-11 05:54:00,
2013-09-10 23:56:00,60.2,58.8,29.80,West,281,0.0,0.0,95,0.00,,---,0.16,VWS V14.01,2013-09-11 05:56:00,
2013-09-10 23:57:00,60.2,58.8,29.80,West,281,0.0,0.0,95,0.00,,---,0.16,VWS V14.01,2013-09-11 05:57:00,
2013-09-10 23:58:00,60.2,58.8,29.80,West,281,0.0,0.0,95,0.00,,---,0.16,VWS V14.01,2013-09-11 05:58:00,
2013-09-10 23:59:00,60.4,59.0,29.77,West,281,0.0,0.0,95,0.00,,---,0.16,VWS V14.01,2013-09-11 05:59:00,